createdAt,value
2024-01-11T00:00:26.293Z,24.27
2024-01-11T00:01:26.420Z,24.27
2024-01-11T00:02:26.405Z,24.27
2024-01-11T00:03:26.367Z,24.27
2024-01-11T00:04:26.499Z,24.27
2024-01-11T00:05:26.526Z,24.25
2024-01-11T00:06:26.549Z,24.25
2024-01-11T00:07:26.526Z,24.27
2024-01-11T00:08:26.558Z,24.28
2024-01-11T00:09:26.613Z,24.27
2024-01-11T00:10:26.591Z,24.28
2024-01-11T00:11:26.664Z,24.24
2024-01-11T00:12:26.727Z,24.24
2024-01-11T00:13:26.705Z,24.27
2024-01-11T00:14:26.771Z,24.24
2024-01-11T00:15:26.753Z,24.27
2024-01-11T00:16:26.773Z,24.27
2024-01-11T00:17:26.879Z,24.24
2024-01-11T00:18:26.940Z,24.25
2024-01-11T00:19:26.910Z,24.27
2024-01-11T00:20:26.982Z,24.24
2024-01-11T00:21:26.981Z,24.27
2024-01-11T00:22:26.990Z,24.25
2024-01-11T00:23:27.168Z,24.27
2024-01-11T00:24:27.833Z,24.27
2024-01-11T00:25:27.033Z,24.30
2024-01-11T00:26:27.110Z,24.28
2024-01-11T00:27:27.117Z,24.30
2024-01-11T00:28:27.170Z,24.30
2024-01-11T00:29:27.269Z,24.27
2024-01-11T00:30:27.191Z,24.30
2024-01-11T00:31:27.169Z,24.27
2024-01-11T00:32:27.379Z,24.28
2024-01-11T00:33:27.393Z,24.30
2024-01-11T00:34:27.377Z,24.31
2024-01-11T00:35:27.430Z,24.32
2024-01-11T00:36:27.384Z,24.31
2024-01-11T00:37:27.377Z,24.32
2024-01-11T00:38:27.452Z,24.31
2024-01-11T00:39:27.448Z,24.32
2024-01-11T00:40:27.514Z,24.34
2024-01-11T00:41:27.550Z,24.32
2024-01-11T00:42:27.608Z,24.32
2024-01-11T00:43:27.577Z,24.35
2024-01-11T00:44:27.670Z,24.35
2024-01-11T00:45:27.653Z,24.36
2024-01-11T00:46:27.655Z,24.38
2024-01-11T00:47:27.770Z,24.38
2024-01-11T00:48:27.799Z,24.39
2024-01-11T00:49:27.794Z,24.39
2024-01-11T00:50:27.828Z,24.38
2024-01-11T00:51:27.774Z,24.38
2024-01-11T00:52:27.832Z,24.38
2024-01-11T00:53:27.906Z,24.39
2024-01-11T00:54:27.893Z,24.41
2024-01-11T00:55:27.903Z,24.42
2024-01-11T00:56:27.998Z,24.41
2024-01-11T00:57:27.978Z,24.44
2024-01-11T00:58:27.972Z,24.42
2024-01-11T00:59:28.058Z,24.44
2024-01-11T01:00:28.036Z,24.47
2024-01-11T01:01:28.154Z,24.44
2024-01-11T01:02:28.120Z,24.47
2024-01-11T01:03:28.186Z,24.45
2024-01-11T01:04:28.116Z,24.48
2024-01-11T01:05:28.260Z,24.50
2024-01-11T01:06:28.281Z,24.50
2024-01-11T01:07:28.210Z,24.51
2024-01-11T01:08:28.247Z,24.52
2024-01-11T01:09:28.244Z,24.52
2024-01-11T01:10:28.270Z,24.54
2024-01-11T01:11:28.333Z,24.54
2024-01-11T01:12:28.267Z,24.54
2024-01-11T01:13:28.304Z,24.55
2024-01-11T01:14:28.364Z,24.56
2024-01-11T01:15:28.300Z,24.58
2024-01-11T01:16:28.364Z,24.58
2024-01-11T01:17:28.482Z,24.58
2024-01-11T01:18:28.431Z,24.59
2024-01-11T01:19:28.517Z,24.61
2024-01-11T01:20:28.466Z,24.58
2024-01-11T01:21:28.430Z,24.56
2024-01-11T01:22:28.421Z,24.56
2024-01-11T01:23:28.449Z,24.59
2024-01-11T01:24:28.460Z,24.58
2024-01-11T01:25:28.480Z,24.62
2024-01-11T01:26:28.517Z,24.61
2024-01-11T01:27:28.486Z,24.61
2024-01-11T01:28:28.486Z,24.62
2024-01-11T01:29:28.595Z,24.61
2024-01-11T01:30:28.521Z,24.61
2024-01-11T01:31:28.574Z,24.61
2024-01-11T01:32:28.678Z,24.62
2024-01-11T01:33:28.818Z,24.62
2024-01-11T01:34:28.686Z,24.62
2024-01-11T01:35:28.648Z,24.63
2024-01-11T01:36:28.596Z,24.63
2024-01-11T01:37:28.614Z,24.65
2024-01-11T01:38:28.648Z,24.63
2024-01-11T01:39:28.648Z,24.62
2024-01-11T01:40:28.625Z,24.62
2024-01-11T01:41:28.690Z,24.65
2024-01-11T01:42:28.652Z,24.65
2024-01-11T01:43:28.661Z,24.65
2024-01-11T01:44:28.735Z,24.65
2024-01-11T01:45:28.704Z,24.63
2024-01-11T01:46:28.772Z,24.66
2024-01-11T01:47:28.808Z,24.66
2024-01-11T01:48:28.899Z,24.68
2024-01-11T01:49:28.825Z,24.68
2024-01-11T01:50:28.749Z,24.66
2024-01-11T01:51:28.825Z,24.65
2024-01-11T01:52:28.779Z,24.69
2024-01-11T01:53:28.792Z,24.68
2024-01-11T01:54:28.825Z,24.68
2024-01-11T01:55:28.739Z,24.68
2024-01-11T01:56:28.820Z,24.68
2024-01-11T01:57:28.831Z,24.72
2024-01-11T01:58:28.844Z,24.71
2024-01-11T01:59:28.859Z,24.69
2024-01-11T02:00:28.806Z,24.68
2024-01-11T02:01:28.908Z,24.69
2024-01-11T02:02:28.851Z,24.72
2024-01-11T02:03:28.881Z,24.71
2024-01-11T02:04:28.852Z,24.72
2024-01-11T02:05:28.988Z,24.71
2024-01-11T02:06:28.923Z,24.71
2024-01-11T02:07:28.857Z,24.73
2024-01-11T02:08:28.895Z,24.71
2024-01-11T02:09:28.847Z,24.69
2024-01-11T02:10:28.871Z,24.72
2024-01-11T02:11:28.909Z,24.71
2024-01-11T02:12:28.852Z,24.73
2024-01-11T02:13:28.873Z,24.69
2024-01-11T02:14:28.905Z,24.69
2024-01-11T02:15:28.886Z,24.71
2024-01-11T02:16:28.907Z,24.71
2024-01-11T02:17:29.015Z,24.73
2024-01-11T02:18:28.943Z,24.71
2024-01-11T02:19:29.003Z,24.72
2024-01-11T02:20:28.934Z,24.71
2024-01-11T02:21:28.900Z,24.75
2024-01-11T02:22:28.949Z,24.73
2024-01-11T02:23:29.013Z,24.72
2024-01-11T02:24:28.956Z,24.72
2024-01-11T02:25:28.954Z,24.72
2024-01-11T02:26:28.972Z,24.72
2024-01-11T02:27:28.968Z,24.72
2024-01-11T02:28:28.943Z,24.73
2024-01-11T02:29:29.051Z,24.73
2024-01-11T02:30:28.955Z,24.73
2024-01-11T02:31:28.973Z,24.76
2024-01-11T02:32:29.079Z,24.78
2024-01-11T02:33:29.155Z,24.75
2024-01-11T02:34:29.238Z,24.72
2024-01-11T02:35:29.062Z,24.75
2024-01-11T02:36:28.938Z,24.75
2024-01-11T02:37:28.976Z,24.75
2024-01-11T02:38:29.043Z,24.75
2024-01-11T02:39:29.048Z,24.78
2024-01-11T02:40:29.033Z,24.75
2024-01-11T02:41:29.113Z,24.78
2024-01-11T02:42:29.072Z,24.76
2024-01-11T02:43:29.060Z,24.76
2024-01-11T02:44:29.210Z,24.76
2024-01-11T02:45:29.117Z,24.76
2024-01-11T02:46:29.131Z,24.81
2024-01-11T02:47:29.222Z,24.76
2024-01-11T02:48:29.209Z,24.78
2024-01-11T02:49:29.264Z,24.79
2024-01-11T02:50:29.266Z,24.78
2024-01-11T02:51:29.247Z,24.76
2024-01-11T02:52:29.206Z,24.79
2024-01-11T02:53:29.244Z,24.79
2024-01-11T02:54:29.240Z,24.78
2024-01-11T02:55:29.262Z,24.78
2024-01-11T02:56:29.295Z,24.78
2024-01-11T02:57:29.310Z,24.79
2024-01-11T02:58:29.270Z,24.81
2024-01-11T02:59:29.311Z,24.81
2024-01-11T03:00:29.336Z,24.79
2024-01-11T03:01:29.292Z,24.78
2024-01-11T03:02:29.354Z,24.79
2024-01-11T03:03:29.402Z,24.78
2024-01-11T03:04:29.377Z,24.79
2024-01-11T03:05:29.437Z,24.82
2024-01-11T03:06:29.465Z,24.82
2024-01-11T03:07:29.480Z,24.81
2024-01-11T03:08:29.509Z,24.81
2024-01-11T03:09:29.546Z,24.79
2024-01-11T03:10:29.553Z,24.82
2024-01-11T03:11:29.612Z,24.78
2024-01-11T03:12:29.641Z,24.79
2024-01-11T03:13:29.621Z,24.81
2024-01-11T03:14:29.689Z,24.79
2024-01-11T03:15:29.681Z,24.81
2024-01-11T03:16:29.708Z,24.81
2024-01-11T03:17:29.808Z,24.82
2024-01-11T03:18:29.775Z,24.82
2024-01-11T03:19:29.826Z,24.82
2024-01-11T03:20:29.946Z,24.82
2024-01-11T03:21:29.843Z,24.82
2024-01-11T03:22:29.827Z,24.82
2024-01-11T03:23:29.920Z,24.82
2024-01-11T03:24:29.915Z,24.81
2024-01-11T03:25:29.961Z,24.86
2024-01-11T03:26:30.127Z,24.82
2024-01-11T03:27:29.982Z,24.85
2024-01-11T03:28:30.039Z,24.85
2024-01-11T03:29:30.058Z,24.83
2024-01-11T03:30:30.094Z,24.85
2024-01-11T03:31:30.111Z,24.83
2024-01-11T03:32:30.244Z,24.83
2024-01-11T03:33:30.259Z,24.83
2024-01-11T03:34:30.289Z,24.83
2024-01-11T03:35:30.210Z,24.83
2024-01-11T03:36:30.175Z,24.82
2024-01-11T03:37:30.184Z,24.81
2024-01-11T03:38:30.262Z,24.82
2024-01-11T03:39:30.903Z,24.82
2024-01-11T03:40:30.223Z,24.82
2024-01-11T03:41:30.311Z,24.83
2024-01-11T03:42:30.299Z,24.82
2024-01-11T03:43:30.260Z,24.81
2024-01-11T03:44:30.363Z,24.83
2024-01-11T03:45:30.286Z,24.83
2024-01-11T03:46:30.320Z,24.83
2024-01-11T03:47:30.413Z,24.83
2024-01-11T03:48:30.412Z,24.83
2024-01-11T03:49:30.478Z,24.82
2024-01-11T03:50:30.448Z,24.83
2024-01-11T03:51:30.403Z,24.85
2024-01-11T03:52:30.440Z,24.85
2024-01-11T03:53:30.442Z,24.83
2024-01-11T03:54:30.492Z,24.83
2024-01-11T03:55:30.419Z,24.83
2024-01-11T03:56:30.486Z,24.83
2024-01-11T03:57:30.477Z,24.83
2024-01-11T03:58:30.487Z,24.82
2024-01-11T03:59:30.530Z,24.82
2024-01-11T04:00:30.578Z,24.83
2024-01-11T04:01:30.534Z,24.86
2024-01-11T04:02:30.600Z,24.86
2024-01-11T04:03:30.655Z,24.86
2024-01-11T04:04:30.624Z,24.86
2024-01-11T04:05:30.672Z,24.86
2024-01-11T04:06:30.735Z,24.86
2024-01-11T04:07:30.654Z,24.85
2024-01-11T04:08:30.704Z,24.86
2024-01-11T04:09:30.715Z,24.86
2024-01-11T04:10:30.772Z,24.87
2024-01-11T04:11:30.817Z,24.85
2024-01-11T04:12:30.820Z,24.87
2024-01-11T04:13:30.896Z,24.85
2024-01-11T04:14:31.000Z,24.86
2024-01-11T04:15:30.958Z,24.86
2024-01-11T04:16:31.061Z,24.86
2024-01-11T04:17:31.145Z,24.85
2024-01-11T04:18:31.201Z,24.85
2024-01-11T04:19:31.382Z,24.86
2024-01-11T04:20:31.254Z,24.86
2024-01-11T04:21:31.220Z,24.83
2024-01-11T04:22:31.260Z,24.87
2024-01-11T04:23:31.422Z,24.85
2024-01-11T04:24:31.332Z,24.86
2024-01-11T04:25:31.446Z,24.87
2024-01-11T04:26:31.442Z,24.87
2024-01-11T04:27:38.679Z,24.85
2024-01-11T04:28:38.641Z,24.85
2024-01-11T04:29:38.675Z,24.85
2024-01-11T04:30:38.736Z,24.86
2024-01-11T04:31:46.026Z,24.82
2024-01-11T04:32:46.084Z,24.86
2024-01-11T04:33:45.968Z,24.85
2024-01-11T04:34:45.987Z,24.83
2024-01-11T04:35:45.976Z,24.87
2024-01-11T04:36:45.932Z,24.85
2024-01-11T04:37:45.973Z,24.87
2024-01-11T04:38:45.975Z,24.87
2024-01-11T04:39:45.980Z,24.83
2024-01-11T04:40:45.980Z,24.87
2024-01-11T04:41:46.020Z,24.86
2024-01-11T04:42:45.973Z,24.86
2024-01-11T04:43:46.075Z,24.85
2024-01-11T04:44:46.045Z,24.85
2024-01-11T04:45:46.046Z,24.86
2024-01-11T04:46:46.008Z,24.85
2024-01-11T04:47:46.222Z,24.85
2024-01-11T04:48:46.038Z,24.85
2024-01-11T04:49:46.003Z,24.83
2024-01-11T04:50:46.022Z,24.83
2024-01-11T04:51:45.984Z,24.82
2024-01-11T04:52:45.969Z,24.79
2024-01-11T04:53:46.069Z,24.82
2024-01-11T04:54:45.968Z,24.82
2024-01-11T04:55:45.978Z,24.82
2024-01-11T04:56:46.014Z,24.79
2024-01-11T04:57:46.039Z,24.81
2024-01-11T04:58:46.091Z,24.76
2024-01-11T04:59:46.221Z,24.79
2024-01-11T05:00:46.253Z,24.78
2024-01-11T05:01:46.275Z,24.78
2024-01-11T05:02:46.493Z,24.76
2024-01-11T05:03:46.422Z,24.78
2024-01-11T05:04:46.550Z,24.73
2024-01-11T05:05:46.694Z,24.76
2024-01-11T05:06:46.732Z,24.75
2024-01-11T05:07:46.722Z,24.78
2024-01-11T05:08:46.828Z,24.75
2024-01-11T05:09:46.893Z,24.73
2024-01-11T05:10:46.920Z,24.71
2024-01-11T05:11:47.008Z,24.72
2024-01-11T05:12:47.059Z,24.73
2024-01-11T05:13:47.119Z,24.71
2024-01-11T05:14:47.248Z,24.72
2024-01-11T05:15:47.278Z,24.69
2024-01-11T05:16:47.355Z,24.68
2024-01-11T05:17:47.490Z,24.69
2024-01-11T05:18:47.560Z,24.66
2024-01-11T05:19:47.523Z,24.68
2024-01-11T05:20:47.633Z,24.68
2024-01-11T05:21:47.659Z,24.68
2024-01-11T05:22:47.725Z,24.66
2024-01-11T05:23:47.764Z,24.68
2024-01-11T05:24:47.870Z,24.68
2024-01-11T05:25:47.907Z,24.68
2024-01-11T05:26:48.070Z,24.68
2024-01-11T05:27:48.069Z,24.69
2024-01-11T05:28:48.085Z,24.68
2024-01-11T05:29:48.240Z,24.69
2024-01-11T05:30:48.251Z,24.69
2024-01-11T05:31:48.546Z,24.69
2024-01-11T05:32:48.566Z,24.69
2024-01-11T05:33:49.311Z,24.66
2024-01-11T05:34:48.681Z,24.68
2024-01-11T05:35:48.562Z,24.68
2024-01-11T05:36:48.646Z,24.68
2024-01-11T05:37:48.727Z,24.68
2024-01-11T05:38:48.784Z,24.69
2024-01-11T05:39:48.824Z,24.65
2024-01-11T05:40:48.870Z,24.66
2024-01-11T05:41:49.013Z,24.66
2024-01-11T05:42:49.013Z,24.66
2024-01-11T05:43:49.084Z,24.68
2024-01-11T05:44:49.165Z,24.65
2024-01-11T05:45:49.269Z,24.66
2024-01-11T05:46:49.255Z,24.66
2024-01-11T05:47:49.403Z,24.66
2024-01-11T05:48:49.470Z,24.66
2024-01-11T05:49:49.412Z,24.66
2024-01-11T05:50:49.568Z,24.68
2024-01-11T05:51:49.517Z,24.65
2024-01-11T05:52:49.579Z,24.69
2024-01-11T05:53:49.570Z,24.66
2024-01-11T05:54:49.607Z,24.66
2024-01-11T05:55:50.936Z,24.68
2024-01-11T05:56:49.715Z,24.68
2024-01-11T05:57:49.728Z,24.69
2024-01-11T05:58:49.811Z,24.66
2024-01-11T05:59:49.862Z,24.68
2024-01-11T06:00:50.599Z,24.69
2024-01-11T06:02:15.642Z,24.66
2024-01-11T06:02:50.020Z,24.66
2024-01-11T06:03:50.068Z,24.66
2024-01-11T06:04:50.026Z,24.65
2024-01-11T06:05:50.032Z,24.65
2024-01-11T06:06:50.037Z,24.63
2024-01-11T06:07:50.059Z,24.66
2024-01-11T06:08:50.161Z,24.63
2024-01-11T06:09:50.034Z,24.65
2024-01-11T06:10:50.052Z,24.66
2024-01-11T06:11:50.042Z,24.63
2024-01-11T06:12:50.080Z,24.62
2024-01-11T06:13:49.994Z,24.61
2024-01-11T06:14:50.031Z,24.62
2024-01-11T06:15:50.120Z,24.59
2024-01-11T06:16:49.991Z,24.55
2024-01-11T06:17:50.198Z,24.54
2024-01-11T06:18:50.128Z,24.56
2024-01-11T06:19:50.026Z,24.51
2024-01-11T06:20:50.047Z,24.51
2024-01-11T06:21:50.052Z,24.51
2024-01-11T06:22:50.042Z,24.51
2024-01-11T06:23:50.094Z,24.47
2024-01-11T06:24:50.055Z,24.47
2024-01-11T06:25:50.023Z,24.44
2024-01-11T06:26:50.078Z,24.41
2024-01-11T06:27:50.083Z,24.41
2024-01-11T06:28:50.080Z,24.39
2024-01-11T06:29:50.189Z,24.36
2024-01-11T06:30:50.142Z,23.45
2024-01-11T06:31:50.106Z,23.63
2024-01-11T06:32:50.181Z,23.33
2024-01-11T06:33:51.655Z,23.38
2024-01-11T06:34:50.109Z,23.36
2024-01-11T06:35:51.150Z,23.30
2024-01-11T06:36:50.042Z,23.26
2024-01-11T06:37:50.040Z,22.43
2024-01-11T06:38:50.088Z,22.35
2024-01-11T06:39:50.049Z,21.50
2024-01-11T06:40:50.259Z,21.60
2024-01-11T06:41:50.174Z,21.37
2024-01-11T06:42:50.283Z,21.31
2024-01-11T06:43:50.395Z,21.47
2024-01-11T06:44:50.509Z,21.61
2024-01-11T06:45:50.506Z,21.52
2024-01-11T06:47:13.034Z,21.78
2024-01-11T06:47:50.901Z,21.92
2024-01-11T06:48:50.570Z,22.03
2024-01-11T06:49:50.677Z,22.17
2024-01-11T06:50:52.048Z,22.23
2024-01-11T06:51:50.368Z,22.39
2024-01-11T06:52:50.445Z,22.50
2024-01-11T06:53:50.386Z,22.63
2024-01-11T06:54:50.389Z,22.74
2024-01-11T06:55:50.403Z,22.83
2024-01-11T06:56:50.430Z,22.93
2024-01-11T06:57:50.517Z,22.99
2024-01-11T06:58:50.378Z,23.07
2024-01-11T06:59:50.508Z,23.17
2024-01-11T07:00:50.882Z,23.23
2024-01-11T07:01:50.350Z,23.30
2024-01-11T07:02:50.526Z,23.35
2024-01-11T07:03:50.422Z,23.42
2024-01-11T07:04:50.366Z,23.49
2024-01-11T07:05:50.802Z,23.52
2024-01-11T07:06:50.420Z,23.55
2024-01-11T07:07:50.534Z,23.59
2024-01-11T07:08:50.555Z,23.63
2024-01-11T07:09:50.558Z,23.67
2024-01-11T07:10:52.160Z,23.70
2024-01-11T07:11:50.810Z,23.72
2024-01-11T07:12:50.783Z,23.74
2024-01-11T07:13:50.897Z,23.77
2024-01-11T07:14:50.908Z,23.81
2024-01-11T07:15:51.184Z,23.83
2024-01-11T07:16:51.047Z,23.86
2024-01-11T07:17:51.531Z,23.88
2024-01-11T07:18:51.563Z,23.93
2024-01-11T07:19:51.140Z,23.96
2024-01-11T07:20:51.779Z,23.99
2024-01-11T07:21:51.266Z,23.96
2024-01-11T07:22:51.312Z,23.97
2024-01-11T07:23:51.428Z,23.94
2024-01-11T07:24:51.433Z,23.96
2024-01-11T07:25:51.861Z,23.96
2024-01-11T07:26:51.527Z,23.96
2024-01-11T07:27:51.677Z,23.99
2024-01-11T07:28:51.622Z,23.97
2024-01-11T07:29:51.776Z,23.96
2024-01-11T07:30:51.915Z,23.96
2024-01-11T07:31:51.842Z,23.96
2024-01-11T07:32:52.008Z,23.94
2024-01-11T07:33:52.580Z,23.97
2024-01-11T07:34:51.993Z,23.93
2024-01-11T07:35:52.409Z,23.69
2024-01-11T07:36:52.398Z,23.67
2024-01-11T07:37:52.137Z,23.67
2024-01-11T07:38:52.188Z,23.69
2024-01-11T07:39:52.158Z,23.73
2024-01-11T07:40:52.821Z,23.76
2024-01-11T07:41:52.438Z,23.80
2024-01-11T07:42:52.301Z,23.88
2024-01-11T07:43:54.682Z,23.91
2024-01-11T07:44:52.476Z,23.99
2024-01-11T07:45:52.341Z,24.00
2024-01-11T07:46:54.535Z,24.04
2024-01-11T07:47:53.265Z,24.03
2024-01-11T07:48:52.826Z,24.07
2024-01-11T07:49:52.841Z,24.08
2024-01-11T07:50:52.440Z,24.05
2024-01-11T07:51:52.310Z,24.05
2024-01-11T07:52:52.383Z,24.04
2024-01-11T07:53:52.785Z,24.07
2024-01-11T07:54:52.433Z,24.08
2024-01-11T07:55:52.466Z,24.10
2024-01-11T07:56:52.447Z,24.13
2024-01-11T07:57:52.355Z,24.15
2024-01-11T07:58:53.135Z,24.18
2024-01-11T07:59:53.082Z,24.24
2024-01-11T08:00:52.512Z,24.24
2024-01-11T08:01:52.436Z,24.30
2024-01-11T08:02:53.014Z,24.31
2024-01-11T08:03:53.302Z,24.31
2024-01-11T08:04:53.065Z,24.38
2024-01-11T08:05:52.508Z,24.41
2024-01-11T08:06:53.080Z,24.39
2024-01-11T08:07:52.384Z,24.41
2024-01-11T08:08:53.380Z,24.44
2024-01-11T08:10:18.650Z,24.41
2024-01-11T08:10:52.756Z,24.47
2024-01-11T08:11:53.662Z,24.47
2024-01-11T08:12:53.383Z,24.48
2024-01-11T08:13:52.593Z,24.51
2024-01-11T08:14:52.690Z,24.52
2024-01-11T08:15:52.983Z,24.54
2024-01-11T08:16:52.992Z,24.55
2024-01-11T08:17:52.792Z,24.62
2024-01-11T08:18:52.660Z,24.55
2024-01-11T08:19:53.581Z,24.58
2024-01-11T08:20:52.720Z,24.56
2024-01-11T08:21:53.083Z,24.55
2024-01-11T08:22:52.640Z,24.56
2024-01-11T08:23:52.711Z,24.56
2024-01-11T08:24:53.250Z,24.58
2024-01-11T08:25:52.748Z,24.61
2024-01-11T08:26:53.074Z,24.59
2024-01-11T08:27:53.560Z,24.62
2024-01-11T08:28:53.028Z,24.62
2024-01-11T08:29:52.671Z,24.62
2024-01-11T08:30:53.656Z,24.62
2024-01-11T08:31:53.599Z,24.62
2024-01-11T08:32:52.993Z,24.54
2024-01-11T08:33:56.442Z,24.51
2024-01-11T08:34:53.314Z,24.47
2024-01-11T08:35:53.270Z,24.45
2024-01-11T08:36:53.326Z,24.42
2024-01-11T08:37:53.653Z,24.44
2024-01-11T08:38:53.299Z,24.39
2024-01-11T08:39:53.795Z,24.27
2024-01-11T08:40:53.680Z,24.04
2024-01-11T08:41:52.827Z,23.84
2024-01-11T08:42:52.822Z,23.70
2024-01-11T08:43:52.817Z,23.69
2024-01-11T08:44:52.828Z,23.66
2024-01-11T08:45:52.945Z,23.67
2024-01-11T08:46:52.849Z,23.73
2024-01-11T08:47:52.900Z,23.77
2024-01-11T08:48:52.964Z,23.83
2024-01-11T08:49:52.793Z,23.87
2024-01-11T08:50:52.957Z,23.91
2024-01-11T08:51:52.822Z,23.93
2024-01-11T08:52:52.899Z,23.96
2024-01-11T08:53:52.893Z,23.97
2024-01-11T08:54:52.953Z,24.03
2024-01-11T08:55:52.905Z,24.05
2024-01-11T08:56:53.287Z,24.10
2024-01-11T08:57:53.219Z,24.10
2024-01-11T08:59:15.479Z,24.15
2024-01-11T08:59:52.868Z,24.15
2024-01-11T09:00:52.908Z,24.20
2024-01-11T09:01:57.823Z,24.21
2024-01-11T09:02:53.844Z,24.21
2024-01-11T09:03:52.916Z,24.23
2024-01-11T09:04:52.881Z,24.31
2024-01-11T09:05:53.652Z,24.30
2024-01-11T09:06:52.842Z,24.31
2024-01-11T09:07:54.423Z,24.34
2024-01-11T09:08:53.243Z,24.32
2024-01-11T09:09:56.777Z,24.35
2024-01-11T09:10:52.845Z,24.36
2024-01-11T09:11:52.811Z,24.35
2024-01-11T09:12:52.882Z,24.36
2024-01-11T09:13:52.821Z,24.38
2024-01-11T09:14:52.996Z,24.36
2024-01-11T09:15:52.887Z,24.38
2024-01-11T09:16:52.860Z,24.39
2024-01-11T09:17:53.064Z,24.39
2024-01-11T09:18:52.902Z,24.39
2024-01-11T09:19:52.934Z,24.41
2024-01-11T09:20:53.839Z,24.41
2024-01-11T09:21:53.244Z,24.42
2024-01-11T09:22:53.242Z,24.42
2024-01-11T09:23:53.181Z,24.39
2024-01-11T09:24:52.856Z,24.34
2024-01-11T09:25:52.847Z,24.31
2024-01-11T09:26:53.323Z,24.31
2024-01-11T09:27:52.878Z,24.28
2024-01-11T09:28:52.873Z,24.18
2024-01-11T09:29:55.628Z,24.23
2024-01-11T09:30:52.986Z,24.23
2024-01-11T09:31:53.289Z,24.24
2024-01-11T09:32:53.149Z,24.21
2024-01-11T09:33:53.044Z,24.21
2024-01-11T09:34:53.055Z,24.17
2024-01-11T09:35:52.999Z,24.11
2024-01-11T09:36:53.285Z,24.11
2024-01-11T09:37:53.667Z,24.04
2024-01-11T09:38:53.002Z,24.08
2024-01-11T09:39:53.014Z,24.07
2024-01-11T09:40:53.326Z,24.04
2024-01-11T09:41:52.926Z,24.04
2024-01-11T09:42:53.689Z,24.05
2024-01-11T09:43:52.929Z,24.04
2024-01-11T09:44:52.979Z,24.05
2024-01-11T09:45:52.888Z,24.05
2024-01-11T09:46:53.248Z,23.42
2024-01-11T09:47:52.934Z,23.29
2024-01-11T09:48:52.997Z,23.30
2024-01-11T09:49:52.978Z,23.29
2024-01-11T09:50:52.924Z,23.22
2024-01-11T09:51:53.279Z,23.21
2024-01-11T09:52:52.881Z,23.21
2024-01-11T09:53:54.830Z,23.26
2024-01-11T09:54:53.013Z,23.30
2024-01-11T09:55:52.895Z,23.36
2024-01-11T09:56:53.381Z,23.42
2024-01-11T09:57:52.953Z,23.45
2024-01-11T09:58:52.981Z,23.35
2024-01-11T09:59:53.779Z,23.36
2024-01-11T10:00:53.107Z,23.38
2024-01-11T10:01:53.306Z,23.45
2024-01-11T10:02:53.744Z,23.50
2024-01-11T10:03:53.339Z,23.53
2024-01-11T10:04:53.566Z,23.39
2024-01-11T10:05:53.273Z,23.15
2024-01-11T10:06:53.606Z,22.97
2024-01-11T10:07:53.223Z,22.70
2024-01-11T10:08:53.386Z,22.56
2024-01-11T10:09:54.151Z,22.28
2024-01-11T10:10:53.909Z,22.12
2024-01-11T10:11:53.619Z,21.85
2024-01-11T10:12:53.428Z,21.85
2024-01-11T10:13:54.147Z,21.74
2024-01-11T10:14:54.059Z,21.61
2024-01-11T10:15:53.841Z,21.55
2024-01-11T10:16:53.549Z,21.52
2024-01-11T10:17:54.507Z,21.36
2024-01-11T10:18:54.338Z,21.34
2024-01-11T10:19:54.232Z,21.33
2024-01-11T10:20:53.911Z,21.22
2024-01-11T10:21:54.953Z,21.22
2024-01-11T10:22:53.690Z,21.17
2024-01-11T10:23:53.709Z,21.09
2024-01-11T10:24:53.823Z,21.00
2024-01-11T10:25:54.007Z,20.92
2024-01-11T10:26:54.453Z,20.89
2024-01-11T10:27:55.404Z,20.89
2024-01-11T10:28:53.938Z,20.83
2024-01-11T10:29:54.399Z,20.82
2024-01-11T10:30:54.613Z,20.82
2024-01-11T10:31:56.760Z,20.71
2024-01-11T10:32:55.203Z,20.86
2024-01-11T10:33:54.257Z,20.85
2024-01-11T10:34:54.456Z,20.96
2024-01-11T10:35:54.296Z,21.04
2024-01-11T10:36:55.203Z,20.97
2024-01-11T10:37:54.279Z,21.00
2024-01-11T10:38:54.100Z,20.97
2024-01-11T10:39:54.119Z,20.94
2024-01-11T10:40:54.257Z,20.93
2024-01-11T10:41:54.569Z,21.00
2024-01-11T10:42:54.137Z,21.04
2024-01-11T10:43:54.253Z,21.11
2024-01-11T10:44:54.269Z,21.27
2024-01-11T10:45:54.268Z,21.37
2024-01-11T10:46:54.338Z,21.43
2024-01-11T10:47:54.808Z,21.31
2024-01-11T10:48:54.395Z,21.36
2024-01-11T10:49:54.588Z,21.27
2024-01-11T10:50:54.193Z,21.26
2024-01-11T10:51:54.587Z,21.14
2024-01-11T10:52:54.146Z,21.09
2024-01-11T10:53:54.536Z,21.20
2024-01-11T10:54:54.120Z,21.23
2024-01-11T10:55:54.424Z,21.30
2024-01-11T10:56:54.187Z,21.38
2024-01-11T10:57:55.665Z,21.47
2024-01-11T10:58:54.119Z,21.50
2024-01-11T10:59:54.201Z,21.57
2024-01-11T11:02:02.917Z,21.64
2024-01-11T11:03:02.616Z,21.74
2024-01-11T11:04:02.356Z,21.80
2024-01-11T11:05:02.491Z,21.84
2024-01-11T11:06:02.508Z,21.77
2024-01-11T11:07:02.491Z,21.65
2024-01-11T11:08:03.290Z,21.64
2024-01-11T11:09:03.118Z,21.52
2024-01-11T11:10:03.259Z,21.55
2024-01-11T11:11:02.779Z,21.58
2024-01-11T11:12:02.433Z,21.60
2024-01-11T11:13:02.757Z,21.45
2024-01-11T11:14:02.455Z,21.40
2024-01-11T11:15:02.386Z,21.30
2024-01-11T11:16:02.550Z,21.19
2024-01-11T11:17:02.725Z,21.29
2024-01-11T11:18:02.400Z,21.27
2024-01-11T11:19:02.430Z,21.14
2024-01-11T11:20:02.405Z,21.10
2024-01-11T11:21:02.314Z,21.20
2024-01-11T11:22:02.350Z,21.31
2024-01-11T11:23:03.334Z,21.41
2024-01-11T11:24:02.427Z,21.51
2024-01-11T11:25:02.364Z,21.62
2024-01-11T11:26:02.340Z,21.65
2024-01-11T11:27:13.612Z,21.65
2024-01-11T11:28:02.317Z,21.64
2024-01-11T11:29:03.299Z,21.69
2024-01-11T11:30:02.640Z,21.71
2024-01-11T11:31:02.339Z,21.62
2024-01-11T11:32:02.545Z,21.52
2024-01-11T11:33:02.425Z,21.48
2024-01-11T11:34:03.912Z,21.50
2024-01-11T11:35:02.340Z,21.54
2024-01-11T11:36:02.388Z,21.55
2024-01-11T11:37:02.739Z,21.60
2024-01-11T11:38:02.362Z,21.69
2024-01-11T11:39:02.404Z,21.81
2024-01-11T11:40:02.422Z,21.91
2024-01-11T11:41:02.764Z,22.05
2024-01-11T11:42:02.454Z,22.16
2024-01-11T11:43:03.273Z,22.23
2024-01-11T11:44:02.561Z,22.29
2024-01-11T11:45:04.136Z,22.40
2024-01-11T11:46:04.188Z,22.49
2024-01-11T11:47:03.110Z,22.56
2024-01-11T11:48:03.105Z,22.61
2024-01-11T11:49:02.988Z,22.74
2024-01-11T11:50:02.555Z,22.80
2024-01-11T11:51:02.612Z,22.84
2024-01-11T11:52:02.624Z,22.91
2024-01-11T11:53:02.658Z,22.95
2024-01-11T11:54:02.654Z,22.99
2024-01-11T11:55:02.754Z,23.05
2024-01-11T11:56:02.718Z,23.09
2024-01-11T11:57:03.128Z,23.12
2024-01-11T11:58:02.912Z,23.18
2024-01-11T11:59:02.835Z,23.22
2024-01-11T12:00:02.821Z,23.25
2024-01-11T12:01:02.817Z,23.23
2024-01-11T12:02:02.834Z,23.23
2024-01-11T12:03:03.032Z,23.22
2024-01-11T12:04:03.018Z,23.23
2024-01-11T12:05:03.195Z,23.26
2024-01-11T12:06:03.214Z,23.26
2024-01-11T12:07:03.373Z,23.28
2024-01-11T12:08:03.097Z,23.29
2024-01-11T12:09:03.042Z,23.26
2024-01-11T12:10:03.151Z,23.29
2024-01-11T12:11:03.149Z,23.29
2024-01-11T12:12:11.473Z,23.30
2024-01-11T12:13:04.197Z,23.33
2024-01-11T12:14:03.872Z,23.30
2024-01-11T12:15:03.284Z,23.30
2024-01-11T12:16:03.176Z,23.32
2024-01-11T12:17:03.185Z,23.36
2024-01-11T12:18:03.381Z,23.36
2024-01-11T12:19:03.676Z,23.36
2024-01-11T12:20:03.259Z,23.36
2024-01-11T12:21:03.187Z,23.23
2024-01-11T12:22:03.248Z,23.08
2024-01-11T12:23:03.285Z,23.11
2024-01-11T12:24:03.264Z,23.07
2024-01-11T12:25:03.245Z,23.08
2024-01-11T12:26:03.258Z,23.14
2024-01-11T12:27:03.326Z,23.14
2024-01-11T12:28:03.477Z,23.18
2024-01-11T12:29:03.357Z,23.21
2024-01-11T12:30:03.423Z,23.23
2024-01-11T12:31:03.360Z,23.21
2024-01-11T12:32:03.862Z,23.05
2024-01-11T12:33:03.677Z,23.02
2024-01-11T12:34:03.588Z,23.02
2024-01-11T12:35:03.496Z,23.02
2024-01-11T12:36:03.968Z,22.97
2024-01-11T12:37:03.651Z,22.97
2024-01-11T12:38:03.764Z,22.98
2024-01-11T12:39:03.811Z,22.99
2024-01-11T12:40:03.683Z,22.99
2024-01-11T12:41:03.895Z,22.99
2024-01-11T12:42:03.803Z,22.99
2024-01-11T12:43:04.021Z,23.02
2024-01-11T12:44:04.051Z,23.04
2024-01-11T12:45:04.495Z,22.99
2024-01-11T12:46:04.171Z,23.01
2024-01-11T12:47:04.155Z,23.02
2024-01-11T12:48:05.271Z,23.05
2024-01-11T12:49:04.325Z,23.05
2024-01-11T12:50:04.346Z,23.05
2024-01-11T12:51:13.690Z,23.02
2024-01-11T12:52:05.823Z,23.05
2024-01-11T12:53:04.645Z,23.11
2024-01-11T12:54:04.543Z,23.15